sensor_id;sensor_type;location;lat;lon;timestamp;temperature;humidity
1135;DHT22;556;53.550;10.048;2022-11-23T00:01:12;7.70;50.70
1135;DHT22;556;53.550;10.048;2022-11-23T00:03:40;7.70;50.80
1135;DHT22;556;53.550;10.048;2022-11-23T00:06:19;7.60;50.30
1135;DHT22;556;53.550;10.048;2022-11-23T00:08:49;7.60;50.30
1135;DHT22;556;53.550;10.048;2022-11-23T00:11:18;7.60;50.30
1135;DHT22;556;53.550;10.048;2022-11-23T00:13:47;7.60;50.30
1135;DHT22;556;53.550;10.048;2022-11-23T00:18:46;7.60;50.20
1135;DHT22;556;53.550;10.048;2022-11-23T00:23:46;7.60;50.30
1135;DHT22;556;53.550;10.048;2022-11-23T00:26:14;7.50;50.30
1135;DHT22;556;53.550;10.048;2022-11-23T00:28:42;7.60;50.80
1135;DHT22;556;53.550;10.048;2022-11-23T00:31:12;7.60;50.70
1135;DHT22;556;53.550;10.048;2022-11-23T00:36:12;7.60;50.40
1135;DHT22;556;53.550;10.048;2022-11-23T00:38:42;7.60;50.30
1135;DHT22;556;53.550;10.048;2022-11-23T00:41:12;7.60;50.30
1135;DHT22;556;53.550;10.048;2022-11-23T00:43:40;7.60;50.30
1135;DHT22;556;53.550;10.048;2022-11-23T00:46:11;7.60;50.30
1135;DHT22;556;53.550;10.048;2022-11-23T00:48:40;7.50;50.30
1135;DHT22;556;53.550;10.048;2022-11-23T00:51:10;7.50;50.40
1135;DHT22;556;53.550;10.048;2022-11-23T00:53:42;7.50;50.30
1135;DHT22;556;53.550;10.048;2022-11-23T00:58:38;7.50;50.30
1135;DHT22;556;53.550;10.048;2022-11-23T01:01:07;7.60;50.70
1135;DHT22;556;53.550;10.048;2022-11-23T01:03:36;7.60;50.30
1135;DHT22;556;53.550;10.048;2022-11-23T01:06:06;7.60;50.40
1135;DHT22;556;53.550;10.048;2022-11-23T01:08:34;7.60;50.40
1135;DHT22;556;53.550;10.048;2022-11-23T01:11:07;7.60;50.80
1135;DHT22;556;53.550;10.048;2022-11-23T01:13:35;7.60;51.30
1135;DHT22;556;53.550;10.048;2022-11-23T01:16:06;7.60;50.40
1135;DHT22;556;53.550;10.048;2022-11-23T01:23:32;7.60;50.30
1135;DHT22;556;53.550;10.048;2022-11-23T01:26:05;7.60;50.80
1135;DHT22;556;53.550;10.048;2022-11-23T01:31:05;7.60;50.30
1135;DHT22;556;53.550;10.048;2022-11-23T01:33:33;7.60;50.30
1135;DHT22;556;53.550;10.048;2022-11-23T01:36:08;7.60;50.80
1135;DHT22;556;53.550;10.048;2022-11-23T01:38:36;7.60;50.80
1135;DHT22;556;53.550;10.048;2022-11-23T01:41:05;7.70;50.30
1135;DHT22;556;53.550;10.048;2022-11-23T01:43:33;7.70;50.30
1135;DHT22;556;53.550;10.048;2022-11-23T01:46:01;7.60;50.40
1135;DHT22;556;53.550;10.048;2022-11-23T01:48:32;7.60;50.40
1135;DHT22;556;53.550;10.048;2022-11-23T01:51:02;7.60;50.20
1135;DHT22;556;53.550;10.048;2022-11-23T01:53:33;7.70;50.90
1135;DHT22;556;53.550;10.048;2022-11-23T01:56:08;7.70;50.30
1135;DHT22;556;53.550;10.048;2022-11-23T01:58:41;7.70;50.30
1135;DHT22;556;53.550;10.048;2022-11-23T02:01:11;7.70;50.80
1135;DHT22;556;53.550;10.048;2022-11-23T02:03:40;7.60;51.30
1135;DHT22;556;53.550;10.048;2022-11-23T02:06:12;7.70;50.40
1135;DHT22;556;53.550;10.048;2022-11-23T02:08:41;7.80;50.40
1135;DHT22;556;53.550;10.048;2022-11-23T02:11:15;7.80;50.40
1135;DHT22;556;53.550;10.048;2022-11-23T02:13:45;7.80;50.80
1135;DHT22;556;53.550;10.048;2022-11-23T02:16:14;7.80;50.40
1135;DHT22;556;53.550;10.048;2022-11-23T02:18:46;7.80;50.80
1135;DHT22;556;53.550;10.048;2022-11-23T02:23:51;7.90;50.40
1135;DHT22;556;53.550;10.048;2022-11-23T02:26:27;8.00;50.40
1135;DHT22;556;53.550;10.048;2022-11-23T02:29:00;8.00;50.80
1135;DHT22;556;53.550;10.048;2022-11-23T02:31:30;8.00;50.40
1135;DHT22;556;53.550;10.048;2022-11-23T02:33:58;8.00;50.30
1135;DHT22;556;53.550;10.048;2022-11-23T02:36:35;8.00;50.30
1135;DHT22;556;53.550;10.048;2022-11-23T02:39:09;8.10;50.40
1135;DHT22;556;53.550;10.048;2022-11-23T02:41:42;8.10;50.90
1135;DHT22;556;53.550;10.048;2022-11-23T02:44:20;8.20;50.40
1135;DHT22;556;53.550;10.048;2022-11-23T02:46:52;8.20;50.40
1135;DHT22;556;53.550;10.048;2022-11-23T02:49:22;8.20;50.40
1135;DHT22;556;53.550;10.048;2022-11-23T02:51:50;8.20;50.30
1135;DHT22;556;53.550;10.048;2022-11-23T02:54:18;8.20;50.80
1135;DHT22;556;53.550;10.048;2022-11-23T02:56:47;8.20;50.40
1135;DHT22;556;53.550;10.048;2022-11-23T02:59:16;8.20;50.40
1135;DHT22;556;53.550;10.048;2022-11-23T03:04:12;8.20;50.40
1135;DHT22;556;53.550;10.048;2022-11-23T03:06:40;8.20;50.30
1135;DHT22;556;53.550;10.048;2022-11-23T03:09:08;8.20;50.40
1135;DHT22;556;53.550;10.048;2022-11-23T03:11:37;8.30;50.40
1135;DHT22;556;53.550;10.048;2022-11-23T03:14:08;8.30;50.40
1135;DHT22;556;53.550;10.048;2022-11-23T03:16:44;8.40;50.50
1135;DHT22;556;53.550;10.048;2022-11-23T03:19:16;8.40;50.70
1135;DHT22;556;53.550;10.048;2022-11-23T03:21:43;8.50;50.50
1135;DHT22;556;53.550;10.048;2022-11-23T03:24:11;8.40;50.40
1135;DHT22;556;53.550;10.048;2022-11-23T03:26:39;8.50;50.40
1135;DHT22;556;53.550;10.048;2022-11-23T03:29:15;8.50;50.40
1135;DHT22;556;53.550;10.048;2022-11-23T03:31:42;8.50;50.40
1135;DHT22;556;53.550;10.048;2022-11-23T03:34:13;8.50;50.40
1135;DHT22;556;53.550;10.048;2022-11-23T03:36:44;8.50;50.90
1135;DHT22;556;53.550;10.048;2022-11-23T03:39:11;8.50;50.50
1135;DHT22;556;53.550;10.048;2022-11-23T03:41:59;8.50;50.60
1135;DHT22;556;53.550;10.048;2022-11-23T03:44:32;8.50;50.50
1135;DHT22;556;53.550;10.048;2022-11-23T03:49:28;8.50;50.50
1135;DHT22;556;53.550;10.048;2022-11-23T03:51:55;8.50;50.50
1135;DHT22;556;53.550;10.048;2022-11-23T03:54:22;8.60;50.90
1135;DHT22;556;53.550;10.048;2022-11-23T03:56:50;8.50;50.50
1135;DHT22;556;53.550;10.048;2022-11-23T03:59:17;8.50;50.50
1135;DHT22;556;53.550;10.048;2022-11-23T04:01:48;8.50;51.00
1135;DHT22;556;53.550;10.048;2022-11-23T04:07:03;8.50;50.70
1135;DHT22;556;53.550;10.048;2022-11-23T04:09:38;8.50;50.60
1135;DHT22;556;53.550;10.048;2022-11-23T04:12:26;8.60;50.60
1135;DHT22;556;53.550;10.048;2022-11-23T04:17:25;8.50;50.60
1135;DHT22;556;53.550;10.048;2022-11-23T04:19:52;8.50;50.60
1135;DHT22;556;53.550;10.048;2022-11-23T04:25:08;8.20;50.50
1135;DHT22;556;53.550;10.048;2022-11-23T04:30:07;8.40;50.70
1135;DHT22;556;53.550;10.048;2022-11-23T04:32:37;8.40;51.10
1135;DHT22;556;53.550;10.048;2022-11-23T04:35:06;8.50;51.00
1135;DHT22;556;53.550;10.048;2022-11-23T04:40:03;8.50;50.70
1135;DHT22;556;53.550;10.048;2022-11-23T04:42:54;8.50;50.70
1135;DHT22;556;53.550;10.048;2022-11-23T04:45:27;8.40;50.60
1135;DHT22;556;53.550;10.048;2022-11-23T04:50:27;8.40;50.60
1135;DHT22;556;53.550;10.048;2022-11-23T04:52:55;8.50;50.70
1135;DHT22;556;53.550;10.048;2022-11-23T04:55:32;8.50;51.10
1135;DHT22;556;53.550;10.048;2022-11-23T04:58:03;8.50;51.20
1135;DHT22;556;53.550;10.048;2022-11-23T05:00:34;8.60;50.70
1135;DHT22;556;53.550;10.048;2022-11-23T05:03:03;8.50;50.60
1135;DHT22;556;53.550;10.048;2022-11-23T05:05:36;8.50;50.60
1135;DHT22;556;53.550;10.048;2022-11-23T05:08:09;8.60;50.70
1135;DHT22;556;53.550;10.048;2022-11-23T05:10:48;8.60;50.70
1135;DHT22;556;53.550;10.048;2022-11-23T05:13:20;8.60;51.20
1135;DHT22;556;53.550;10.048;2022-11-23T05:20:50;8.60;50.70
1135;DHT22;556;53.550;10.048;2022-11-23T05:25:45;8.60;50.70
1135;DHT22;556;53.550;10.048;2022-11-23T05:28:17;8.60;50.70
1135;DHT22;556;53.550;10.048;2022-11-23T05:30:46;8.60;51.10
1135;DHT22;556;53.550;10.048;2022-11-23T05:33:14;8.40;50.50
1135;DHT22;556;53.550;10.048;2022-11-23T05:38:10;8.60;50.80
1135;DHT22;556;53.550;10.048;2022-11-23T05:40:44;8.50;50.70
1135;DHT22;556;53.550;10.048;2022-11-23T05:43:14;8.60;50.80
1135;DHT22;556;53.550;10.048;2022-11-23T05:45:42;8.50;50.70
1135;DHT22;556;53.550;10.048;2022-11-23T05:50:53;8.50;50.80
1135;DHT22;556;53.550;10.048;2022-11-23T05:53:27;8.60;51.30
1135;DHT22;556;53.550;10.048;2022-11-23T05:56:01;8.60;50.80
1135;DHT22;556;53.550;10.048;2022-11-23T05:58:55;8.70;50.90
1135;DHT22;556;53.550;10.048;2022-11-23T06:01:23;8.70;50.80
1135;DHT22;556;53.550;10.048;2022-11-23T06:06:19;8.80;50.80
1135;DHT22;556;53.550;10.048;2022-11-23T06:08:47;8.80;50.80
1135;DHT22;556;53.550;10.048;2022-11-23T06:11:15;8.90;50.80
1135;DHT22;556;53.550;10.048;2022-11-23T06:13:45;8.90;50.80
1135;DHT22;556;53.550;10.048;2022-11-23T06:16:15;8.90;50.80
1135;DHT22;556;53.550;10.048;2022-11-23T06:18:57;8.90;50.90
1135;DHT22;556;53.550;10.048;2022-11-23T06:21:24;8.90;50.90
1135;DHT22;556;53.550;10.048;2022-11-23T06:26:21;8.90;50.90
1135;DHT22;556;53.550;10.048;2022-11-23T06:28:48;8.90;50.80
1135;DHT22;556;53.550;10.048;2022-11-23T06:33:51;8.80;51.00
1135;DHT22;556;53.550;10.048;2022-11-23T06:36:18;8.80;50.90
1135;DHT22;556;53.550;10.048;2022-11-23T06:38:49;8.80;51.00
1135;DHT22;556;53.550;10.048;2022-11-23T06:41:21;8.80;51.00
1135;DHT22;556;53.550;10.048;2022-11-23T06:43:49;8.90;51.40
1135;DHT22;556;53.550;10.048;2022-11-23T06:46:33;8.90;51.00
1135;DHT22;556;53.550;10.048;2022-11-23T06:49:01;8.90;51.00
1135;DHT22;556;53.550;10.048;2022-11-23T06:51:29;8.90;51.00
1135;DHT22;556;53.550;10.048;2022-11-23T06:53:57;8.90;51.00
1135;DHT22;556;53.550;10.048;2022-11-23T06:56:25;9.00;51.50
1135;DHT22;556;53.550;10.048;2022-11-23T06:58:53;8.90;51.00
1135;DHT22;556;53.550;10.048;2022-11-23T07:01:24;9.00;51.10
1135;DHT22;556;53.550;10.048;2022-11-23T07:14:12;9.00;51.10
1135;DHT22;556;53.550;10.048;2022-11-23T07:19:16;8.90;51.10
1135;DHT22;556;53.550;10.048;2022-11-23T07:24:12;9.10;51.30
1135;DHT22;556;53.550;10.048;2022-11-23T07:26:40;9.00;51.70
1135;DHT22;556;53.550;10.048;2022-11-23T07:29:08;9.10;51.20
1135;DHT22;556;53.550;10.048;2022-11-23T07:31:36;9.10;51.30
1135;DHT22;556;53.550;10.048;2022-11-23T07:34:03;9.10;51.20
1135;DHT22;556;53.550;10.048;2022-11-23T07:36:32;9.20;51.60
1135;DHT22;556;53.550;10.048;2022-11-23T07:44:06;9.30;51.10
1135;DHT22;556;53.550;10.048;2022-11-23T07:46:33;9.30;51.10
1135;DHT22;556;53.550;10.048;2022-11-23T07:51:29;9.40;51.20
1135;DHT22;556;53.550;10.048;2022-11-23T07:53:58;9.40;51.20
1135;DHT22;556;53.550;10.048;2022-11-23T07:58:53;9.50;51.20
1135;DHT22;556;53.550;10.048;2022-11-23T08:01:20;9.30;51.40
1135;DHT22;556;53.550;10.048;2022-11-23T08:06:15;9.60;51.30
1135;DHT22;556;53.550;10.048;2022-11-23T08:08:43;9.60;51.30
1135;DHT22;556;53.550;10.048;2022-11-23T08:11:11;9.60;51.30
1135;DHT22;556;53.550;10.048;2022-11-23T08:13:41;9.60;51.40
1135;DHT22;556;53.550;10.048;2022-11-23T08:16:09;9.60;51.50
1135;DHT22;556;53.550;10.048;2022-11-23T08:18:36;9.70;51.50
1135;DHT22;556;53.550;10.048;2022-11-23T08:21:03;9.70;51.90
1135;DHT22;556;53.550;10.048;2022-11-23T08:23:31;9.70;51.40
1135;DHT22;556;53.550;10.048;2022-11-23T08:25:58;9.80;51.90
1135;DHT22;556;53.550;10.048;2022-11-23T08:28:29;9.90;51.50
1135;DHT22;556;53.550;10.048;2022-11-23T08:30:56;10.00;50.70
1135;DHT22;556;53.550;10.048;2022-11-23T08:35:52;10.10;50.60
1135;DHT22;556;53.550;10.048;2022-11-23T08:38:20;10.10;50.50
1135;DHT22;556;53.550;10.048;2022-11-23T08:43:15;10.30;50.60
1135;DHT22;556;53.550;10.048;2022-11-23T08:45:43;10.40;50.60
1135;DHT22;556;53.550;10.048;2022-11-23T08:50:38;10.40;50.60
1135;DHT22;556;53.550;10.048;2022-11-23T08:53:05;10.40;50.60
1135;DHT22;556;53.550;10.048;2022-11-23T08:58:00;10.50;50.50
1135;DHT22;556;53.550;10.048;2022-11-23T09:02:56;10.60;50.70
1135;DHT22;556;53.550;10.048;2022-11-23T09:07:51;10.70;50.70
1135;DHT22;556;53.550;10.048;2022-11-23T09:10:19;10.80;50.70
1135;DHT22;556;53.550;10.048;2022-11-23T09:12:47;10.90;50.70
1135;DHT22;556;53.550;10.048;2022-11-23T09:15:14;11.10;50.60
1135;DHT22;556;53.550;10.048;2022-11-23T09:17:42;11.00;50.50
1135;DHT22;556;53.550;10.048;2022-11-23T09:22:39;11.20;50.50
1135;DHT22;556;53.550;10.048;2022-11-23T09:25:07;11.20;50.50
1135;DHT22;556;53.550;10.048;2022-11-23T09:27:35;11.60;51.20
1135;DHT22;556;53.550;10.048;2022-11-23T09:30:03;11.30;50.70
1135;DHT22;556;53.550;10.048;2022-11-23T09:32:31;11.30;51.10
1135;DHT22;556;53.550;10.048;2022-11-23T09:37:27;11.40;50.70
1135;DHT22;556;53.550;10.048;2022-11-23T09:39:54;11.40;50.60
1135;DHT22;556;53.550;10.048;2022-11-23T09:42:39;11.60;50.70
1135;DHT22;556;53.550;10.048;2022-11-23T09:45:18;11.60;50.60
1135;DHT22;556;53.550;10.048;2022-11-23T09:50:42;12.10;50.70
1135;DHT22;556;53.550;10.048;2022-11-23T09:53:15;12.10;50.70
1135;DHT22;556;53.550;10.048;2022-11-23T09:55:47;12.20;50.60
1135;DHT22;556;53.550;10.048;2022-11-23T09:58:17;12.40;50.60
1135;DHT22;556;53.550;10.048;2022-11-23T10:00:47;12.20;50.40
1135;DHT22;556;53.550;10.048;2022-11-23T10:03:17;12.40;50.70
1135;DHT22;556;53.550;10.048;2022-11-23T10:05:53;12.40;50.80
1135;DHT22;556;53.550;10.048;2022-11-23T10:08:34;12.50;51.30
1135;DHT22;556;53.550;10.048;2022-11-23T10:13:59;12.60;50.50
1135;DHT22;556;53.550;10.048;2022-11-23T10:16:35;12.60;50.90
1135;DHT22;556;53.550;10.048;2022-11-23T10:19:07;12.50;51.10
1135;DHT22;556;53.550;10.048;2022-11-23T10:21:57;12.40;50.80
1135;DHT22;556;53.550;10.048;2022-11-23T10:24:31;12.40;51.20
1135;DHT22;556;53.550;10.048;2022-11-23T10:26:59;12.50;50.80
1135;DHT22;556;53.550;10.048;2022-11-23T10:29:34;12.50;51.30
1135;DHT22;556;53.550;10.048;2022-11-23T10:32:04;12.60;51.30
1135;DHT22;556;53.550;10.048;2022-11-23T10:34:45;12.60;50.80
1135;DHT22;556;53.550;10.048;2022-11-23T10:37:15;12.70;51.20
1135;DHT22;556;53.550;10.048;2022-11-23T10:39:46;12.70;50.70
1135;DHT22;556;53.550;10.048;2022-11-23T10:42:19;12.80;50.70
1135;DHT22;556;53.550;10.048;2022-11-23T10:44:48;12.80;51.30
1135;DHT22;556;53.550;10.048;2022-11-23T10:47:34;12.80;51.30
1135;DHT22;556;53.550;10.048;2022-11-23T10:50:19;12.90;50.70
1135;DHT22;556;53.550;10.048;2022-11-23T10:52:52;13.10;50.80
1135;DHT22;556;53.550;10.048;2022-11-23T10:55:27;13.00;50.70
1135;DHT22;556;53.550;10.048;2022-11-23T10:57:57;13.20;50.60
1135;DHT22;556;53.550;10.048;2022-11-23T11:00:27;13.20;51.10
1135;DHT22;556;53.550;10.048;2022-11-23T11:02:58;13.30;50.60
1135;DHT22;556;53.550;10.048;2022-11-23T11:05:28;13.30;51.10
1135;DHT22;556;53.550;10.048;2022-11-23T11:07:58;13.20;51.00
1135;DHT22;556;53.550;10.048;2022-11-23T11:10:47;13.20;51.10
1135;DHT22;556;53.550;10.048;2022-11-23T11:13:25;13.20;51.10
1135;DHT22;556;53.550;10.048;2022-11-23T11:15:58;13.20;50.70
1135;DHT22;556;53.550;10.048;2022-11-23T11:18:29;13.20;50.70
1135;DHT22;556;53.550;10.048;2022-11-23T11:21:00;13.20;51.10
1135;DHT22;556;53.550;10.048;2022-11-23T11:23:29;13.10;50.60
1135;DHT22;556;53.550;10.048;2022-11-23T11:26:17;13.00;50.70
1135;DHT22;556;53.550;10.048;2022-11-23T11:31:24;12.90;50.70
1135;DHT22;556;53.550;10.048;2022-11-23T11:33:57;13.00;50.70
1135;DHT22;556;53.550;10.048;2022-11-23T11:36:33;13.00;51.20
1135;DHT22;556;53.550;10.048;2022-11-23T11:39:07;13.10;51.10
1135;DHT22;556;53.550;10.048;2022-11-23T11:41:39;13.10;50.70
1135;DHT22;556;53.550;10.048;2022-11-23T11:44:17;13.20;50.70
1135;DHT22;556;53.550;10.048;2022-11-23T11:46:47;13.30;50.80
1135;DHT22;556;53.550;10.048;2022-11-23T11:49:20;13.60;51.40
1135;DHT22;556;53.550;10.048;2022-11-23T11:51:54;13.30;50.60
1135;DHT22;556;53.550;10.048;2022-11-23T11:54:31;13.30;50.70
1135;DHT22;556;53.550;10.048;2022-11-23T11:57:09;13.30;50.80
1135;DHT22;556;53.550;10.048;2022-11-23T11:59:45;13.40;50.90
1135;DHT22;556;53.550;10.048;2022-11-23T12:02:18;13.40;51.30
1135;DHT22;556;53.550;10.048;2022-11-23T12:04:52;13.40;50.80
1135;DHT22;556;53.550;10.048;2022-11-23T12:07:28;13.60;50.90
1135;DHT22;556;53.550;10.048;2022-11-23T12:10:02;13.80;50.90
1135;DHT22;556;53.550;10.048;2022-11-23T12:12:34;13.70;50.70
1135;DHT22;556;53.550;10.048;2022-11-23T12:15:04;13.90;51.30
1135;DHT22;556;53.550;10.048;2022-11-23T12:17:40;13.90;50.70
1135;DHT22;556;53.550;10.048;2022-11-23T12:20:19;13.90;51.20
1135;DHT22;556;53.550;10.048;2022-11-23T12:22:57;13.90;51.00
1135;DHT22;556;53.550;10.048;2022-11-23T12:25:30;13.90;51.40
1135;DHT22;556;53.550;10.048;2022-11-23T12:28:20;13.90;51.30
1135;DHT22;556;53.550;10.048;2022-11-23T12:30:56;13.80;50.90
1135;DHT22;556;53.550;10.048;2022-11-23T12:34:02;13.70;50.90
1135;DHT22;556;53.550;10.048;2022-11-23T12:40:05;13.60;51.10
1135;DHT22;556;53.550;10.048;2022-11-23T12:42:39;13.60;51.00
1135;DHT22;556;53.550;10.048;2022-11-23T12:45:27;13.40;51.00
1135;DHT22;556;53.550;10.048;2022-11-23T12:48:11;13.40;51.00
1135;DHT22;556;53.550;10.048;2022-11-23T12:50:48;13.30;51.60
1135;DHT22;556;53.550;10.048;2022-11-23T12:53:31;13.20;51.20
1135;DHT22;556;53.550;10.048;2022-11-23T12:56:13;13.20;51.30
1135;DHT22;556;53.550;10.048;2022-11-23T12:58:41;13.20;51.30
1135;DHT22;556;53.550;10.048;2022-11-23T13:01:13;13.20;51.20
1135;DHT22;556;53.550;10.048;2022-11-23T13:04:10;13.20;51.70
1135;DHT22;556;53.550;10.048;2022-11-23T13:07:27;13.20;51.20
1135;DHT22;556;53.550;10.048;2022-11-23T13:10:08;13.10;51.20
1135;DHT22;556;53.550;10.048;2022-11-23T13:13:03;13.10;51.20
1135;DHT22;556;53.550;10.048;2022-11-23T13:18:38;13.10;51.10
1135;DHT22;556;53.550;10.048;2022-11-23T13:21:17;13.20;51.10
1135;DHT22;556;53.550;10.048;2022-11-23T13:23:46;13.20;51.60
1135;DHT22;556;53.550;10.048;2022-11-23T13:26:15;13.20;51.10
1135;DHT22;556;53.550;10.048;2022-11-23T13:28:43;13.20;51.00
1135;DHT22;556;53.550;10.048;2022-11-23T13:31:21;13.30;51.10
1135;DHT22;556;53.550;10.048;2022-11-23T13:33:52;13.30;50.90
1135;DHT22;556;53.550;10.048;2022-11-23T13:45:22;13.30;51.00
1135;DHT22;556;53.550;10.048;2022-11-23T13:48:14;13.30;51.00
1135;DHT22;556;53.550;10.048;2022-11-23T13:50:59;13.40;50.90
1135;DHT22;556;53.550;10.048;2022-11-23T13:53:29;13.40;50.80
1135;DHT22;556;53.550;10.048;2022-11-23T13:56:14;13.40;51.00
1135;DHT22;556;53.550;10.048;2022-11-23T13:58:50;13.50;51.10
1135;DHT22;556;53.550;10.048;2022-11-23T14:04:24;14.40;52.20
1135;DHT22;556;53.550;10.048;2022-11-23T14:06:55;14.60;52.30
1135;DHT22;556;53.550;10.048;2022-11-23T14:09:27;15.30;52.80
1135;DHT22;556;53.550;10.048;2022-11-23T14:12:16;16.10;52.40
1135;DHT22;556;53.550;10.048;2022-11-23T14:20:43;15.60;51.50
1135;DHT22;556;53.550;10.048;2022-11-23T14:26:06;15.00;51.50
1135;DHT22;556;53.550;10.048;2022-11-23T14:28:47;14.70;51.50
1135;DHT22;556;53.550;10.048;2022-11-23T14:31:24;14.50;51.60
1135;DHT22;556;53.550;10.048;2022-11-23T14:34:00;14.40;51.40
1135;DHT22;556;53.550;10.048;2022-11-23T14:36:36;14.30;51.50
1135;DHT22;556;53.550;10.048;2022-11-23T14:39:39;14.30;51.60
1135;DHT22;556;53.550;10.048;2022-11-23T14:42:13;14.40;51.70
1135;DHT22;556;53.550;10.048;2022-11-23T14:44:43;14.60;51.80
1135;DHT22;556;53.550;10.048;2022-11-23T14:47:11;14.70;52.20
1135;DHT22;556;53.550;10.048;2022-11-23T14:49:48;14.90;51.90
1135;DHT22;556;53.550;10.048;2022-11-23T14:52:18;14.80;51.70
1135;DHT22;556;53.550;10.048;2022-11-23T14:54:49;14.70;51.70
1135;DHT22;556;53.550;10.048;2022-11-23T14:57:17;14.60;51.60
1135;DHT22;556;53.550;10.048;2022-11-23T14:59:48;14.50;51.50
1135;DHT22;556;53.550;10.048;2022-11-23T15:02:18;14.20;51.40
1135;DHT22;556;53.550;10.048;2022-11-23T15:05:00;13.90;51.30
1135;DHT22;556;53.550;10.048;2022-11-23T15:07:41;13.40;51.30
1135;DHT22;556;53.550;10.048;2022-11-23T15:10:27;13.20;51.20
1135;DHT22;556;53.550;10.048;2022-11-23T15:15:25;12.50;51.10
1135;DHT22;556;53.550;10.048;2022-11-23T15:17:55;12.20;51.10
1135;DHT22;556;53.550;10.048;2022-11-23T15:20:25;11.90;51.10
1135;DHT22;556;53.550;10.048;2022-11-23T15:25:25;11.50;51.00
1135;DHT22;556;53.550;10.048;2022-11-23T15:30:27;11.30;50.90
1135;DHT22;556;53.550;10.048;2022-11-23T15:32:56;11.20;50.90
1135;DHT22;556;53.550;10.048;2022-11-23T15:35:29;11.10;50.70
1135;DHT22;556;53.550;10.048;2022-11-23T15:37:58;10.90;50.70
1135;DHT22;556;53.550;10.048;2022-11-23T15:40:31;10.90;50.70
1135;DHT22;556;53.550;10.048;2022-11-23T15:42:58;10.70;50.60
1135;DHT22;556;53.550;10.048;2022-11-23T15:50:28;10.50;50.50
1135;DHT22;556;53.550;10.048;2022-11-23T15:55:25;10.40;50.50
1135;DHT22;556;53.550;10.048;2022-11-23T15:57:59;10.20;50.50
1135;DHT22;556;53.550;10.048;2022-11-23T16:00:29;10.30;50.60
1135;DHT22;556;53.550;10.048;2022-11-23T16:03:34;10.20;50.50
1135;DHT22;556;53.550;10.048;2022-11-23T16:06:15;10.10;50.50
1135;DHT22;556;53.550;10.048;2022-11-23T16:11:20;9.90;51.30
1135;DHT22;556;53.550;10.048;2022-11-23T16:13:48;9.90;51.30
1135;DHT22;556;53.550;10.048;2022-11-23T16:16:17;9.90;51.40
1135;DHT22;556;53.550;10.048;2022-11-23T16:28:49;9.70;51.30
1135;DHT22;556;53.550;10.048;2022-11-23T16:31:28;9.70;51.30
1135;DHT22;556;53.550;10.048;2022-11-23T16:33:55;9.70;51.40
1135;DHT22;556;53.550;10.048;2022-11-23T16:36:26;9.60;51.70
1135;DHT22;556;53.550;10.048;2022-11-23T16:38:54;9.60;51.30
1135;DHT22;556;53.550;10.048;2022-11-23T16:41:21;9.60;51.30
1135;DHT22;556;53.550;10.048;2022-11-23T16:43:51;9.60;51.30
1135;DHT22;556;53.550;10.048;2022-11-23T16:46:19;9.60;51.40
1135;DHT22;556;53.550;10.048;2022-11-23T16:48:47;9.60;51.40
1135;DHT22;556;53.550;10.048;2022-11-23T16:53:43;9.50;51.40
1135;DHT22;556;53.550;10.048;2022-11-23T16:56:15;9.60;51.50
1135;DHT22;556;53.550;10.048;2022-11-23T16:58:43;9.60;51.50
1135;DHT22;556;53.550;10.048;2022-11-23T17:01:17;9.50;51.50
1135;DHT22;556;53.550;10.048;2022-11-23T17:06:14;9.60;51.50
1135;DHT22;556;53.550;10.048;2022-11-23T17:08:42;9.50;51.40
1135;DHT22;556;53.550;10.048;2022-11-23T17:11:13;9.50;51.40
1135;DHT22;556;53.550;10.048;2022-11-23T17:13:41;9.50;51.50
1135;DHT22;556;53.550;10.048;2022-11-23T17:18:38;9.40;51.50
1135;DHT22;556;53.550;10.048;2022-11-23T17:21:06;9.40;51.60
1135;DHT22;556;53.550;10.048;2022-11-23T17:30:55;9.30;51.60
1135;DHT22;556;53.550;10.048;2022-11-23T17:35:56;9.20;51.70
1135;DHT22;556;53.550;10.048;2022-11-23T17:38:25;9.20;51.70
1135;DHT22;556;53.550;10.048;2022-11-23T17:40:53;9.10;51.70
1135;DHT22;556;53.550;10.048;2022-11-23T17:43:21;9.10;51.70
1135;DHT22;556;53.550;10.048;2022-11-23T17:50:44;9.10;51.70
1135;DHT22;556;53.550;10.048;2022-11-23T17:53:13;9.10;51.70
1135;DHT22;556;53.550;10.048;2022-11-23T17:55:40;9.10;51.70
1135;DHT22;556;53.550;10.048;2022-11-23T17:58:10;9.00;51.70
1135;DHT22;556;53.550;10.048;2022-11-23T18:03:05;9.00;51.70
1135;DHT22;556;53.550;10.048;2022-11-23T18:05:33;9.00;51.80
1135;DHT22;556;53.550;10.048;2022-11-23T18:08:00;9.00;51.80
1135;DHT22;556;53.550;10.048;2022-11-23T18:10:28;9.00;51.80
1135;DHT22;556;53.550;10.048;2022-11-23T18:12:55;9.00;51.90
1135;DHT22;556;53.550;10.048;2022-11-23T18:15:25;9.00;51.90
1135;DHT22;556;53.550;10.048;2022-11-23T18:17:52;8.90;51.80
1135;DHT22;556;53.550;10.048;2022-11-23T18:20:19;8.90;51.80
1135;DHT22;556;53.550;10.048;2022-11-23T18:22:46;8.90;51.90
1135;DHT22;556;53.550;10.048;2022-11-23T18:27:42;8.90;51.90
1135;DHT22;556;53.550;10.048;2022-11-23T18:30:10;8.90;51.90
1135;DHT22;556;53.550;10.048;2022-11-23T18:32:38;8.90;51.90
1135;DHT22;556;53.550;10.048;2022-11-23T18:37:33;8.80;51.90
1135;DHT22;556;53.550;10.048;2022-11-23T18:40:01;8.80;51.80
1135;DHT22;556;53.550;10.048;2022-11-23T18:42:28;8.80;52.00
1135;DHT22;556;53.550;10.048;2022-11-23T18:44:56;8.70;51.90
1135;DHT22;556;53.550;10.048;2022-11-23T18:47:24;8.70;52.00
1135;DHT22;556;53.550;10.048;2022-11-23T18:52:18;8.60;51.90
1135;DHT22;556;53.550;10.048;2022-11-23T18:54:45;8.70;52.00
1135;DHT22;556;53.550;10.048;2022-11-23T18:57:13;8.60;51.90
1135;DHT22;556;53.550;10.048;2022-11-23T19:02:10;8.60;52.00
1135;DHT22;556;53.550;10.048;2022-11-23T19:09:33;8.60;52.10
1135;DHT22;556;53.550;10.048;2022-11-23T19:12:00;8.60;52.00
1135;DHT22;556;53.550;10.048;2022-11-23T19:16:55;8.70;52.10
1135;DHT22;556;53.550;10.048;2022-11-23T19:19:23;8.70;52.10
1135;DHT22;556;53.550;10.048;2022-11-23T19:21:50;8.80;52.50
1135;DHT22;556;53.550;10.048;2022-11-23T19:26:46;8.80;52.00
1135;DHT22;556;53.550;10.048;2022-11-23T19:31:44;8.70;52.10
1135;DHT22;556;53.550;10.048;2022-11-23T19:34:13;8.70;52.10
1135;DHT22;556;53.550;10.048;2022-11-23T19:36:42;8.70;52.10
1135;DHT22;556;53.550;10.048;2022-11-23T19:39:09;8.70;52.20
1135;DHT22;556;53.550;10.048;2022-11-23T19:41:36;8.60;52.10
1135;DHT22;556;53.550;10.048;2022-11-23T19:44:03;8.60;52.20
1135;DHT22;556;53.550;10.048;2022-11-23T19:46:31;8.50;52.20
1135;DHT22;556;53.550;10.048;2022-11-23T19:48:58;8.60;52.30
1135;DHT22;556;53.550;10.048;2022-11-23T19:51:26;8.50;52.20
1135;DHT22;556;53.550;10.048;2022-11-23T19:53:55;8.50;52.30
1135;DHT22;556;53.550;10.048;2022-11-23T19:56:24;8.40;52.20
1135;DHT22;556;53.550;10.048;2022-11-23T19:58:54;8.50;52.30
1135;DHT22;556;53.550;10.048;2022-11-23T20:01:24;8.40;52.20
1135;DHT22;556;53.550;10.048;2022-11-23T20:03:53;8.40;52.30
1135;DHT22;556;53.550;10.048;2022-11-23T20:06:21;8.40;52.70
1135;DHT22;556;53.550;10.048;2022-11-23T20:08:54;8.40;52.40
1135;DHT22;556;53.550;10.048;2022-11-23T20:11:23;8.40;52.40
1135;DHT22;556;53.550;10.048;2022-11-23T20:13:51;8.30;52.30
1135;DHT22;556;53.550;10.048;2022-11-23T20:16:19;8.30;52.70
1135;DHT22;556;53.550;10.048;2022-11-23T20:18:52;8.30;52.30